HDAM/JIB METAR and TAF weather

Enter ICAO airport designator
Station Type Date Time Source
HDAM METAR 2019/12/13 09:00 UTC NOAA

HDAM 130900Z 08009KT 9999 SCT023 30/24 Q1014


Station Type Date Time Source
HDAM Decoded METAR 2019/12/13 09:00 UTC NOAA

Djibouti \ Ambouli, Djibouti (HDAM) 11-33N 043-10E
Dec 13, 2019 - 04:00 AM EST / 2019.12.13 0900 UTC
Wind: from the E (080 degrees) at 10 MPH (9 KT):0
Visibility: greater than 7 mile(s):0
Sky conditions: partly cloudy
Temperature: 86 F (30 C)
Heat index: 95.0 F (35.0 C):1
Dew Point: 75 F (24 C)
Relative Humidity: 70%
Pressure (altimeter): 29.94 in. Hg (1014 hPa)
ob: HDAM 130900Z 08009KT 9999 SCT023 30/24 Q1014
cycle: 9

Station Type Date Time Source
HDAM TAF 2019/12/13 12:09 UTC NOAA

TAF HDAM 131100Z 1312/1412 08010KT 9999 FEW023
BECMG 1315/1318 VRB05KT FEW020
BECMG 1400/1406 00000KT SCT020

Example: see airport list